.
WxDataArchive / Data Records for 2010-03-26
2010-03-25 March 2010 2010-03-27

Data Records for Friday, 26 March 2010

Time	Temp	Chill	HIndex	Humid	Dewpt	 Wind 	HiWind	WindDir	Rain 	Barom 
-----	----	-----	------	-----	-----	------	------	-------	-----	----- 
00:00	33.2	33.2	33.2	81	28.0	1	6	45	0.00	29.936 
00:05	33.2	33.2	33.2	81	28.0	1	4	90	0.00	29.936 
00:10	33.2	33.2	33.2	81	28.0	1	5	90	0.00	29.936 
00:15	33.1	33.1	33.1	81	27.9	1	3	112	0.00	29.936 
00:20	33.1	33.1	33.1	81	27.9	1	3	45	0.00	29.936 
00:25	33.1	33.1	33.1	81	27.9	1	5	90	0.00	29.936 
00:30	33.1	33.1	33.1	81	27.9	1	3	90	0.00	29.936 
00:35	33.1	33.1	33.1	82	28.2	0	3	22	0.00	29.936 
00:40	32.9	32.9	32.9	82	28.0	0	2	112	0.00	29.936 
00:45	32.9	32.9	32.9	82	28.0	0	4	68	0.00	29.935 
00:50	32.9	32.9	32.9	83	28.3	1	3	45	0.00	29.935 
00:55	32.8	32.8	32.8	82	27.9	0	2	68	0.00	29.935 
01:00	32.5	32.5	32.5	75	25.5	2	7	135	0.00	29.936 
01:05	32.7	32.7	32.7	70	24.0	1	5	135	0.00	29.936 
01:10	32.7	32.7	32.7	65	22.3	2	5	45	0.00	29.936 
01:15	32.8	32.8	32.8	62	21.2	2	3	90	0.00	29.940 
01:20	32.9	32.9	32.9	59	20.2	2	9	68	0.00	29.940 
01:25	32.9	32.9	32.9	59	20.2	1	5	135	0.00	29.940 
01:30	32.9	32.9	32.9	58	19.8	1	4	158	0.00	29.948 
01:35	32.9	32.9	32.9	55	18.5	2	10	112	0.00	29.948 
01:40	32.9	32.9	32.9	57	19.4	2	5	112	0.00	29.948 
01:45	32.8	32.8	32.8	55	18.4	2	6	45	0.00	29.946 
01:50	32.8	32.8	32.8	56	18.9	1	6	112	0.00	29.946 
01:55	32.7	32.7	32.7	56	18.8	2	7	22	0.00	29.946 
02:00	32.5	32.5	32.5	56	18.6	2	7	45	0.00	29.950 
02:05	32.4	32.4	32.4	58	19.3	1	5	90	0.00	29.950 
02:10	32.2	32.2	32.2	57	18.7	1	4	112	0.00	29.950 
02:15	32.1	32.1	32.1	55	17.8	2	6	45	0.00	29.959 
02:20	31.9	31.9	31.9	54	17.2	2	7	112	0.00	29.959 
02:25	31.8	31.8	31.8	54	17.1	3	8	45	0.00	29.959 
02:30	31.6	31.6	31.6	53	16.5	3	6	135	0.00	29.964 
02:35	31.5	31.5	31.5	54	16.8	3	9	45	0.00	29.964 
02:40	31.3	31.3	31.3	55	17.0	1	7	68	0.00	29.964 
02:45	31.2	31.2	31.2	55	16.9	2	6	112	0.00	29.969 
02:50	31.0	31.0	31.0	56	17.2	1	6	112	0.00	29.969 
02:55	30.9	30.9	30.9	54	16.2	2	7	90	0.00	29.969 
03:00	30.7	30.7	30.7	54	16.0	3	10	45	0.00	29.973 
03:05	30.7	30.7	30.7	55	16.5	3	11	112	0.00	29.973 
03:10	30.6	30.6	30.6	56	16.8	2	7	22	0.00	29.973 
03:15	30.3	30.3	30.3	57	16.9	2	9	45	0.00	29.983 
03:20	30.1	30.1	30.1	57	16.7	2	6	68	0.00	29.983 
03:25	30.0	30.0	30.0	57	16.6	1	6	45	0.00	29.983 
03:30	29.8	29.8	29.8	59	17.2	2	7	45	0.00	29.984 
03:35	29.7	29.7	29.7	58	16.8	2	6	90	0.00	29.984 
03:40	29.5	29.5	29.5	58	16.6	2	7	68	0.00	29.984 
03:45	29.5	29.5	29.5	59	17.0	1	4	22	0.00	29.986 
03:50	29.4	29.4	29.4	60	17.3	2	5	135	0.00	29.986 
03:55	29.3	29.3	29.3	61	17.5	1	3	45	0.00	29.986 
04:00	29.1	29.1	29.1	61	17.4	1	5	45	0.00	29.997 
04:05	29.0	29.0	29.0	62	17.6	1	5	45	0.00	29.997 
04:10	28.8	28.8	28.8	62	17.4	1	3	45	0.00	29.997 
04:15	28.7	28.7	28.7	62	17.4	1	4	112	0.00	30.000 
04:20	28.5	28.5	28.5	62	17.2	0	1	0	0.00	30.000 
04:25	28.4	28.4	28.4	63	17.4	1	3	90	0.00	30.000 
04:30	28.2	28.2	28.2	62	16.9	1	3	68	0.00	30.008 
04:35	28.1	28.1	28.1	62	16.8	1	3	90	0.00	30.008 
04:40	27.9	27.9	27.9	61	16.2	1	5	315	0.00	30.008 
04:45	27.8	27.8	27.8	62	16.5	0	3	22	0.00	30.019 
04:50	27.6	27.6	27.6	62	16.3	0	3	22	0.00	30.019 
04:55	27.5	27.5	27.5	62	16.2	1	3	315	0.00	30.019 
05:00	27.3	27.3	27.3	62	16.0	1	7	45	0.00	30.024 
05:05	27.2	27.2	27.2	61	15.6	1	10	0	0.00	30.024 
05:10	27.2	27.2	27.2	60	15.2	1	3	45	0.00	30.024 
05:15	27.0	27.0	27.0	60	15.0	1	6	0	0.00	30.032 
05:20	27.0	27.0	27.0	61	15.4	1	5	158	0.00	30.032 
05:25	26.9	26.9	26.9	61	15.3	0	2	68	0.00	30.032 
05:30	26.7	26.7	26.7	62	15.5	0	3	45	0.00	30.035 
05:35	26.6	26.6	26.6	63	15.7	0	2	158	0.00	30.035 
05:40	26.4	26.4	26.4	63	15.5	1	3	135	0.00	30.035 
05:45	26.3	26.3	26.3	63	15.4	0	2	315	0.00	30.047 
05:50	26.1	26.1	26.1	64	15.6	0	2	45	0.00	30.047 
05:55	26.1	26.1	26.1	64	15.6	1	6	68	0.00	30.047 
06:00	26.0	26.0	26.0	64	15.5	0	2	45	0.00	30.058 
06:05	26.0	26.0	26.0	64	15.5	0	4	68	0.00	30.058 
06:10	25.8	25.8	25.8	65	15.7	0	2	90	0.00	30.058 
06:15	25.8	25.8	25.8	64	15.3	1	4	180	0.00	30.071 
06:20	25.7	25.7	25.7	65	15.6	0	2	90	0.00	30.071 
06:25	25.6	25.6	25.6	64	15.1	0	3	0	0.00	30.071 
06:30	25.6	25.6	25.6	65	15.5	0	2	0	0.00	30.083 
06:35	25.4	25.4	25.4	64	14.9	1	5	68	0.00	30.083 
06:40	25.4	25.4	25.4	64	14.9	0	2	68	0.00	30.083 
06:45	25.4	25.4	25.4	65	15.3	0	2	45	0.00	30.090 
06:50	25.3	25.3	25.3	64	14.9	1	3	338	0.00	30.090 
06:55	25.3	25.3	25.3	63	14.5	2	5	135	0.00	30.090 
07:00	25.3	25.3	25.3	63	14.5	0	2	0	0.00	30.101 
07:05	25.1	25.1	25.1	63	14.3	1	4	90	0.00	30.101 
07:10	25.1	25.1	25.1	64	14.7	1	5	45	0.00	30.101 
07:15	25.0	25.0	25.0	65	14.9	0	4	45	0.00	30.107 
07:20	24.8	24.8	24.8	65	14.7	0	1	90	0.00	30.107 
07:25	24.7	24.7	24.7	66	15.0	0	1	90	0.00	30.107 
07:30	24.7	24.7	24.7	65	14.6	1	5	90	0.00	30.115 
07:35	24.5	24.5	24.5	66	14.8	0	1	68	0.00	30.115 
07:40	24.5	24.5	24.5	66	14.8	1	5	112	0.00	30.115 
07:45	24.5	24.5	24.5	65	14.4	1	5	45	0.00	30.124 
07:50	24.5	24.5	24.5	65	14.4	1	4	90	0.00	30.124 
07:55	24.5	24.5	24.5	66	14.8	0	1	90	0.00	30.124 
08:00	24.5	24.5	24.5	66	14.8	0	2	90	0.00	30.137 
08:05	24.5	24.5	24.5	66	14.8	0	2	90	0.00	30.137 
08:10	24.7	24.7	24.7	65	14.6	0	2	68	0.00	30.137 
08:15	24.8	24.8	24.8	65	14.7	1	6	45	0.00	30.149 
08:20	25.1	25.1	25.1	63	14.3	1	5	45	0.00	30.149 
08:25	25.3	25.3	25.3	62	14.1	1	6	68	0.00	30.149 
08:30	25.6	25.6	25.6	60	13.7	1	5	112	0.00	30.151 
08:35	26.0	26.0	26.0	60	14.0	1	5	22	0.00	30.151 
08:40	26.3	26.3	26.3	56	12.8	3	7	68	0.00	30.151 
08:45	26.4	26.4	26.4	56	12.9	2	10	112	0.00	30.155 
08:50	26.6	26.6	26.6	57	13.4	2	7	0	0.00	30.155 
08:55	26.9	26.9	26.9	57	13.7	1	4	45	0.00	30.155 
09:00	27.0	27.0	27.0	58	14.2	1	4	68	0.00	30.156 
09:05	27.0	27.0	27.0	58	14.2	1	6	22	0.00	30.156 
09:10	27.0	27.0	27.0	58	14.2	1	7	22	0.00	30.156 
09:15	27.0	27.0	27.0	58	14.2	2	7	90	0.00	30.166 
09:20	27.0	27.0	27.0	58	14.2	2	7	112	0.00	30.166 
09:25	27.0	27.0	27.0	58	14.2	2	7	45	0.00	30.166 
09:30	27.0	27.0	27.0	58	14.2	3	7	112	0.00	30.166 
09:35	27.2	27.2	27.2	60	15.2	3	9	112	0.00	30.166 
09:40	27.6	27.6	27.6	59	15.2	2	7	68	0.00	30.166 
09:45	28.1	28.1	28.1	59	15.6	1	4	45	0.00	30.177 
09:50	28.4	28.4	28.4	59	15.9	1	3	45	0.00	30.177 
09:55	28.5	28.5	28.5	59	16.0	2	7	68	0.00	30.177 
10:00	28.7	28.7	28.7	58	15.8	2	9	0	0.00	30.179 
10:05	28.8	28.8	28.8	59	16.3	2	6	90	0.00	30.179 
10:10	29.3	29.3	29.3	59	16.8	2	7	112	0.00	30.179 
10:15	29.5	29.5	29.5	58	16.6	2	7	45	0.00	30.181 
10:20	30.0	30.0	30.0	59	17.4	2	9	90	0.00	30.181 
10:25	30.0	30.0	30.0	58	17.0	3	10	112	0.00	30.181 
10:30	30.4	30.4	30.4	58	17.4	2	5	112	0.00	30.183 
10:35	30.9	30.9	30.9	58	17.9	2	5	45	0.00	30.183 
10:40	30.9	30.9	30.9	58	17.9	3	10	90	0.00	30.183 
10:45	31.0	31.0	31.0	58	18.0	2	5	90	0.00	30.189 
10:50	31.3	31.3	31.3	58	18.3	2	6	112	0.00	30.189 
10:55	31.5	31.5	31.5	57	18.0	2	6	45	0.00	30.189 
11:00	31.8	31.8	31.8	60	19.5	1	5	45	0.00	30.189 
11:05	32.4	32.4	32.4	60	20.1	1	3	45	0.00	30.189 
11:10	32.8	32.8	32.8	57	19.3	2	9	112	0.00	30.189 
11:15	32.8	32.8	32.8	56	18.9	3	8	112	0.00	30.192 
11:20	32.5	32.5	32.5	58	19.4	3	12	112	0.00	30.192 
11:25	32.8	32.8	32.8	59	20.1	2	7	112	0.00	30.192 
11:30	32.7	32.7	32.7	60	20.4	3	11	90	0.00	30.193 
11:35	33.1	33.1	33.1	60	20.7	2	6	112	0.00	30.193 
11:40	33.4	33.4	33.4	58	20.2	2	10	90	0.00	30.193 
11:45	33.8	33.8	33.8	58	20.6	2	6	45	0.00	30.195 
11:50	34.1	34.1	34.1	58	20.9	2	6	112	0.00	30.195 
11:55	34.4	34.4	34.4	56	20.3	1	6	68	0.00	30.195 
12:00	33.8	30.2	33.8	54	18.9	4	12	112	0.00	30.194 
12:05	34.1	34.1	34.1	58	20.9	2	6	68	0.00	30.194 
12:10	34.0	29.4	34.0	54	19.1	5	10	112	0.00	30.194 
12:15	34.0	34.0	34.0	55	19.6	3	7	112	0.00	30.194 
12:20	34.4	34.4	34.4	58	21.2	1	6	68	0.00	30.194 
12:25	34.7	34.7	34.7	56	20.6	3	12	135	0.00	30.194 
12:30	34.9	31.4	34.9	56	20.8	4	7	112	0.00	30.192 
12:35	35.0	35.0	35.0	55	20.5	2	7	112	0.00	30.192 
12:40	35.5	35.5	35.5	58	22.2	2	6	112	0.00	30.192 
12:45	35.2	35.2	35.2	54	20.2	3	10	90	0.00	30.188 
12:50	35.6	35.6	35.6	55	21.0	1	3	90	0.00	30.188 
12:55	36.0	36.0	36.0	56	21.8	2	5	90	0.00	30.188 
13:00	36.3	36.3	36.3	55	21.7	1	5	45	0.00	30.189 
13:05	36.3	36.3	36.3	56	22.1	2	6	112	0.00	30.189 
13:10	36.5	36.5	36.5	57	22.7	3	10	90	0.00	30.189 
13:15	36.2	36.2	36.2	58	22.9	3	7	90	0.00	30.187 
13:20	36.0	36.0	36.0	53	20.5	3	9	112	0.00	30.187 
13:25	36.2	36.2	36.2	58	22.9	1	7	112	0.00	30.187 
13:30	36.6	36.6	36.6	54	21.5	2	6	112	0.00	30.186 
13:35	36.5	36.5	36.5	54	21.5	2	6	112	0.00	30.186 
13:40	36.2	36.2	36.2	53	20.7	2	5	90	0.00	30.186 
13:45	36.8	36.8	36.8	56	22.6	2	7	90	0.00	30.187 
13:50	37.0	37.0	37.0	54	21.9	2	6	90	0.00	30.187 
13:55	36.9	36.9	36.9	55	22.3	2	5	90	0.00	30.187 
14:00	37.5	37.5	37.5	54	22.4	1	6	90	0.00	30.183 
14:05	37.5	37.5	37.5	52	21.5	1	3	112	0.00	30.183 
14:10	37.5	37.5	37.5	54	22.4	1	2	270	0.00	30.183 
14:15	37.8	37.8	37.8	56	23.5	1	5	45	0.00	30.189 
14:20	38.3	38.3	38.3	53	22.7	1	3	68	0.00	30.189 
14:25	38.3	38.3	38.3	52	22.2	1	4	68	0.00	30.189 
14:30	38.5	38.5	38.5	56	24.2	2	9	90	0.00	30.183 
14:35	38.5	38.5	38.5	50	21.5	1	3	90	0.00	30.183 
14:40	38.5	38.5	38.5	53	22.9	1	5	90	0.00	30.183 
14:45	38.9	38.9	38.9	50	21.9	2	6	112	0.00	30.177 
14:50	39.1	39.1	39.1	49	21.6	1	7	45	0.00	30.177 
14:55	39.2	39.2	39.2	51	22.6	1	7	112	0.00	30.177 
15:00	38.8	38.8	38.8	54	23.6	2	6	90	0.00	30.174 
15:05	39.2	39.2	39.2	54	24.0	2	5	90	0.00	30.174 
15:10	39.3	39.3	39.3	52	23.2	1	5	0	0.00	30.174 
15:15	39.2	39.2	39.2	51	22.6	3	7	90	0.00	30.171 
15:20	39.2	39.2	39.2	51	22.6	2	7	90	0.00	30.171 
15:25	38.9	36.0	38.9	50	21.9	4	9	90	0.00	30.171 
15:30	38.5	38.5	38.5	50	21.5	1	5	112	0.00	30.172 
15:35	38.9	38.9	38.9	54	23.7	1	4	45	0.00	30.172 
15:40	38.9	38.9	38.9	51	22.3	1	5	112	0.00	30.172 
15:45	38.9	38.9	38.9	52	22.8	1	4	90	0.00	30.172 
15:50	39.1	39.1	39.1	51	22.5	2	9	112	0.00	30.172 
15:55	39.1	39.1	39.1	50	22.0	2	7	22	0.00	30.172 
16:00	38.6	38.6	38.6	48	20.6	0	3	68	0.00	30.177 
16:05	38.6	38.6	38.6	50	21.6	0	2	90	0.00	30.177 
16:10	39.1	39.1	39.1	49	21.6	3	7	112	0.00	30.177 
16:15	38.9	38.9	38.9	52	22.8	1	5	112	0.00	30.178 
16:20	38.9	38.9	38.9	51	22.3	2	7	90	0.00	30.178 
16:25	39.5	39.5	39.5	48	21.5	1	5	112	0.00	30.178 
16:30	39.5	39.5	39.5	49	21.9	2	8	90	0.00	30.175 
16:35	39.5	39.5	39.5	51	22.9	2	6	112	0.00	30.175 
16:40	39.6	39.6	39.6	50	22.5	1	6	45	0.00	30.175 
16:45	39.3	39.3	39.3	50	22.2	2	6	90	0.00	30.173 
16:50	39.3	39.3	39.3	50	22.2	1	4	112	0.00	30.173 
16:55	39.5	36.7	39.5	48	21.5	4	10	112	0.00	30.173 
17:00	39.5	39.5	39.5	50	22.4	3	8	112	0.00	30.173 
17:05	39.3	39.3	39.3	48	21.3	3	6	112	0.00	30.173 
17:10	39.2	39.2	39.2	50	22.1	3	8	90	0.00	30.173 
17:15	39.5	39.5	39.5	50	22.4	1	4	90	0.00	30.180 
17:20	39.6	39.6	39.6	49	22.0	1	4	90	0.00	30.180 
17:25	39.5	39.5	39.5	50	22.4	2	7	68	0.00	30.180 
17:30	39.5	39.5	39.5	49	21.9	2	6	112	0.00	30.178 
17:35	39.3	39.3	39.3	47	20.8	3	6	112	0.00	30.178 
17:40	39.3	39.3	39.3	48	21.3	1	3	112	0.00	30.178 
17:45	39.2	39.2	39.2	48	21.2	2	4	112	0.00	30.178 
17:50	39.5	39.5	39.5	49	21.9	2	6	112	0.00	30.178 
17:55	39.2	39.2	39.2	49	21.7	2	6	90	0.00	30.178 
18:00	39.3	39.3	39.3	49	21.8	2	7	112	0.00	30.180 
18:05	39.3	39.3	39.3	47	20.8	2	7	112	0.00	30.180 
18:10	39.3	39.3	39.3	48	21.3	2	5	112	0.00	30.180 
18:15	39.1	39.1	39.1	47	20.6	2	5	90	0.00	30.182 
18:20	39.1	39.1	39.1	47	20.6	1	3	68	0.00	30.182 
18:25	39.1	39.1	39.1	48	21.1	1	4	22	0.00	30.182 
18:30	39.1	39.1	39.1	49	21.6	2	7	90	0.00	30.185 
18:35	38.9	38.9	38.9	50	21.9	1	5	90	0.00	30.185 
18:40	38.9	38.9	38.9	49	21.4	0	2	90	0.00	30.185 
18:45	38.8	38.8	38.8	48	20.8	0	2	90	0.00	30.189 
18:50	38.8	38.8	38.8	50	21.8	2	6	90	0.00	30.189 
18:55	38.9	38.9	38.9	51	22.3	2	4	112	0.00	30.189 
19:00	38.8	38.8	38.8	49	21.3	1	4	90	0.00	30.185 
19:05	38.6	38.6	38.6	50	21.6	1	5	90	0.00	30.185 
19:10	38.5	38.5	38.5	48	20.5	1	4	90	0.00	30.185 
19:15	38.3	38.3	38.3	48	20.4	2	5	90	0.00	30.185 
19:20	38.2	38.2	38.2	49	20.7	2	6	90	0.00	30.185 
19:25	38.0	38.0	38.0	50	21.0	2	4	90	0.00	30.185 
19:30	38.0	38.0	38.0	50	21.0	2	5	90	0.00	30.184 
19:35	37.9	37.9	37.9	50	20.9	1	3	112	0.00	30.184 
19:40	37.8	37.8	37.8	51	21.3	1	3	112	0.00	30.184 
19:45	37.6	37.6	37.6	51	21.1	1	3	112	0.00	30.186 
19:50	37.5	37.5	37.5	52	21.5	1	3	112	0.00	30.186 
19:55	37.2	37.2	37.2	52	21.2	1	4	112	0.00	30.186 
20:00	37.0	37.0	37.0	53	21.5	1	3	112	0.00	30.180 
20:05	36.8	36.8	36.8	54	21.7	1	3	90	0.00	30.180 
20:10	36.6	36.6	36.6	55	22.0	1	2	90	0.00	30.180 
20:15	36.5	36.5	36.5	56	22.3	1	3	90	0.00	30.174 
20:20	36.2	36.2	36.2	56	22.0	0	1	90	0.00	30.174 
20:25	36.0	36.0	36.0	57	22.3	0	1	90	0.00	30.174 
20:30	35.8	35.8	35.8	57	22.1	0	0	---	0.00	30.185 
20:35	35.5	35.5	35.5	58	22.2	0	1	90	0.00	30.185 
20:40	35.2	35.2	35.2	59	22.3	0	0	---	0.00	30.185 
20:45	34.9	34.9	34.9	60	22.4	0	0	---	0.00	30.194 
20:50	34.7	34.7	34.7	61	22.6	0	2	90	0.00	30.194 
20:55	34.7	34.7	34.7	61	22.6	0	1	90	0.00	30.194 
21:00	34.7	34.7	34.7	62	23.0	0	0	---	0.00	30.196 
21:05	34.4	34.4	34.4	62	22.7	0	0	---	0.00	30.196 
21:10	34.3	34.3	34.3	62	22.7	0	0	---	0.00	30.196 
21:15	34.1	34.1	34.1	64	23.2	0	0	---	0.00	30.200 
21:20	33.8	33.8	33.8	65	23.3	0	2	90	0.00	30.200 
21:25	33.8	33.8	33.8	65	23.3	1	3	90	0.00	30.200 
21:30	33.8	33.8	33.8	65	23.3	0	2	90	0.00	30.212 
21:35	33.8	33.8	33.8	65	23.3	1	2	90	0.00	30.212 
21:40	33.7	33.7	33.7	65	23.2	0	2	90	0.00	30.212 
21:45	33.5	33.5	33.5	65	23.0	1	4	90	0.00	30.211 
21:50	33.4	33.4	33.4	65	22.9	1	3	90	0.00	30.211 
21:55	33.2	33.2	33.2	64	22.4	1	3	90	0.00	30.211 
22:00	33.1	33.1	33.1	64	22.3	1	3	90	0.00	30.214 
22:05	32.9	32.9	32.9	64	22.1	1	3	90	0.00	30.214 
22:10	32.8	32.8	32.8	64	22.0	1	3	90	0.00	30.214 
22:15	32.7	32.7	32.7	64	21.9	1	3	90	0.00	30.216 
22:20	32.4	32.4	32.4	64	21.6	0	2	90	0.00	30.216 
22:25	32.2	32.2	32.2	64	21.4	0	3	90	0.00	30.216 
22:30	32.1	32.1	32.1	64	21.3	0	3	158	0.00	30.223 
22:35	32.1	32.1	32.1	65	21.7	0	2	112	0.00	30.223 
22:40	31.9	31.9	31.9	65	21.5	0	1	112	0.00	30.223 
22:45	31.6	31.6	31.6	65	21.2	0	0	---	0.00	30.225 
22:50	31.5	31.5	31.5	65	21.1	0	1	112	0.00	30.225 
22:55	31.2	31.2	31.2	66	21.2	0	1	112	0.00	30.225 
23:00	31.0	31.0	31.0	66	21.0	0	1	112	0.00	30.230 
23:05	30.9	30.9	30.9	67	21.3	0	0	---	0.00	30.230 
23:10	30.7	30.7	30.7	67	21.1	0	1	112	0.00	30.230 
23:15	30.6	30.6	30.6	67	21.0	0	2	112	0.00	30.227 
23:20	30.6	30.6	30.6	68	21.3	0	1	112	0.00	30.227 
23:25	30.4	30.4	30.4	68	21.1	0	1	112	0.00	30.227 
23:30	30.3	30.3	30.3	68	21.0	0	1	112	0.00	30.224 
23:35	30.3	30.3	30.3	68	21.0	0	2	112	0.00	30.224 
23:40	30.3	30.3	30.3	68	21.0	0	1	112	0.00	30.224 
23:45	30.3	30.3	30.3	68	21.0	1	2	112	0.00	30.223 
23:50	30.3	30.3	30.3	68	21.0	0	2	112	0.00	30.223 
23:55	30.3	30.3	30.3	68	21.0	1	4	112	0.00	30.223 

CoCoRaHS
IN-AL-39
A2 Web Hosting
Creative Commons License
GoDaddy
search engine by freefind advanced

loaded 2018-11-12 15:37:15 • last modified 2010-11-18 10:43:29
Privacy PolicyDisclaimer
• wx.awcolley.com is powered by PmWiki v.2002016 •
• all content (unless otherwise noted) © 2018 A W Colley